createdAt,value
2022-07-30T00:01:22.497Z,23.45
2022-07-30T00:03:48.962Z,23.26
2022-07-30T00:06:17.823Z,23.10
2022-07-30T00:08:44.122Z,23.08
2022-07-30T00:11:11.913Z,22.94
2022-07-30T00:13:38.141Z,23.01
2022-07-30T00:16:04.427Z,22.95
2022-07-30T00:18:30.724Z,22.45
2022-07-30T00:20:57.007Z,22.92
2022-07-30T00:23:23.314Z,22.93
2022-07-30T00:25:49.618Z,23.12
2022-07-30T00:28:15.931Z,22.23
2022-07-30T00:30:42.246Z,22.56
2022-07-30T00:33:08.619Z,22.72
2022-07-30T00:35:34.931Z,22.71
2022-07-30T00:38:01.229Z,22.51
2022-07-30T00:40:27.540Z,22.38
2022-07-30T00:42:53.833Z,22.20
2022-07-30T00:45:20.119Z,21.98
2022-07-30T00:47:46.447Z,22.30
2022-07-30T00:50:12.728Z,22.23
2022-07-30T00:52:39.014Z,22.16
2022-07-30T00:55:05.308Z,22.26
2022-07-30T00:57:31.603Z,22.08
2022-07-30T00:59:58.147Z,22.09
2022-07-30T01:02:24.465Z,22.29
2022-07-30T01:04:50.808Z,21.84
2022-07-30T01:07:19.068Z,22.06
2022-07-30T01:09:48.015Z,21.84
2022-07-30T01:12:14.864Z,22.00
2022-07-30T01:14:41.169Z,22.00
2022-07-30T01:17:07.450Z,21.83
2022-07-30T01:19:48.937Z,21.98
2022-07-30T01:22:15.250Z,21.98
2022-07-30T01:24:41.552Z,21.88
2022-07-30T01:27:07.853Z,21.83
2022-07-30T01:29:34.150Z,21.92
2022-07-30T01:32:00.557Z,22.09
2022-07-30T01:34:26.919Z,22.01
2022-07-30T01:36:53.212Z,22.14
2022-07-30T01:39:19.604Z,22.14
2022-07-30T01:41:45.911Z,22.13
2022-07-30T01:44:12.206Z,21.88
2022-07-30T01:46:38.506Z,22.07
2022-07-30T01:49:04.891Z,21.86
2022-07-30T01:51:37.145Z,21.75
2022-07-30T01:54:04.044Z,21.45
2022-07-30T01:56:30.334Z,21.39
2022-07-30T01:59:01.126Z,21.09
2022-07-30T02:01:27.515Z,21.38
2022-07-30T02:03:53.933Z,21.32
2022-07-30T02:06:21.143Z,21.42
2022-07-30T02:08:47.437Z,21.33
2022-07-30T02:11:13.715Z,21.40
2022-07-30T02:13:40.028Z,21.20
2022-07-30T02:16:06.350Z,21.32
2022-07-30T02:18:32.695Z,21.36
2022-07-30T02:20:58.987Z,21.37
2022-07-30T02:23:25.344Z,21.46
2022-07-30T02:25:51.646Z,21.08
2022-07-30T02:28:17.946Z,21.31
2022-07-30T02:30:44.243Z,21.42
2022-07-30T02:33:12.622Z,21.06
2022-07-30T02:35:38.926Z,21.23
2022-07-30T02:38:05.530Z,21.52
2022-07-30T02:40:31.831Z,21.53
2022-07-30T02:42:58.139Z,21.54
2022-07-30T02:45:24.715Z,21.58
2022-07-30T02:47:51.026Z,21.36
2022-07-30T02:50:17.356Z,21.55
2022-07-30T02:52:43.646Z,21.39
2022-07-30T02:55:09.941Z,21.47
2022-07-30T02:57:36.263Z,21.34
2022-07-30T03:00:09.561Z,21.14
2022-07-30T03:02:36.135Z,21.15
2022-07-30T03:05:04.262Z,21.13
2022-07-30T03:07:30.560Z,21.28
2022-07-30T03:09:57.063Z,21.48
2022-07-30T03:12:23.364Z,21.17
2022-07-30T03:14:49.661Z,21.08
2022-07-30T03:17:15.974Z,20.79
2022-07-30T03:19:42.277Z,20.69
2022-07-30T03:22:08.606Z,20.81
2022-07-30T03:24:35.163Z,20.79
2022-07-30T03:27:03.824Z,21.00
2022-07-30T03:29:30.367Z,21.15
2022-07-30T03:31:56.716Z,21.08
2022-07-30T03:34:23.226Z,21.14
2022-07-30T03:36:50.692Z,20.77
2022-07-30T03:39:17.444Z,20.78
2022-07-30T03:41:43.735Z,20.89
2022-07-30T03:44:10.163Z,21.13
2022-07-30T03:46:36.541Z,20.71
2022-07-30T03:49:02.945Z,21.02
2022-07-30T03:51:32.993Z,20.86
2022-07-30T03:53:59.670Z,20.92
2022-07-30T03:56:26.076Z,20.55
2022-07-30T03:58:52.386Z,20.71
2022-07-30T04:01:18.779Z,20.78
2022-07-30T04:03:45.181Z,20.96
2022-07-30T04:06:11.530Z,21.04
2022-07-30T04:08:37.834Z,21.20
2022-07-30T04:11:04.169Z,21.25
2022-07-30T04:13:30.585Z,21.29
2022-07-30T04:16:38.489Z,20.93
2022-07-30T04:18:43.176Z,20.78
2022-07-30T04:21:15.987Z,20.97
2022-07-30T04:24:04.044Z,21.00
2022-07-30T04:26:29.911Z,20.63
2022-07-30T04:28:56.791Z,20.61
2022-07-30T04:31:23.143Z,20.74
2022-07-30T04:33:49.485Z,20.79
2022-07-30T04:36:16.514Z,21.05
2022-07-30T04:38:42.884Z,20.77
2022-07-30T04:41:09.211Z,20.64
2022-07-30T04:43:35.525Z,20.45
2022-07-30T04:46:01.974Z,20.61
2022-07-30T04:48:29.052Z,20.64
2022-07-30T04:50:55.267Z,20.67
2022-07-30T04:53:21.560Z,20.43
2022-07-30T04:55:47.896Z,20.57
2022-07-30T04:58:14.222Z,20.74
2022-07-30T05:00:41.467Z,20.74
2022-07-30T05:03:08.098Z,20.74
2022-07-30T05:05:34.423Z,20.79
2022-07-30T05:08:00.718Z,20.86
2022-07-30T05:10:27.011Z,20.81
2022-07-30T05:12:53.322Z,20.95
2022-07-30T05:15:19.924Z,20.85
2022-07-30T05:17:46.210Z,21.03
2022-07-30T05:20:12.502Z,21.12
2022-07-30T05:22:38.801Z,20.97
2022-07-30T05:25:16.005Z,21.19
2022-07-30T05:27:42.687Z,20.70
2022-07-30T05:30:08.983Z,20.93
2022-07-30T05:32:35.354Z,20.98
2022-07-30T05:35:02.229Z,20.99
2022-07-30T05:37:28.507Z,20.92
2022-07-30T05:39:57.611Z,20.83
2022-07-30T05:42:29.314Z,21.13
2022-07-30T05:44:55.869Z,20.82
2022-07-30T05:47:22.853Z,21.00
2022-07-30T05:49:49.100Z,20.98
2022-07-30T05:52:15.410Z,21.15
2022-07-30T05:54:41.754Z,21.32
2022-07-30T05:57:08.053Z,21.37
2022-07-30T05:59:34.372Z,21.31
2022-07-30T06:02:01.832Z,21.36
2022-07-30T06:04:28.252Z,21.22
2022-07-30T06:06:54.634Z,21.38
2022-07-30T06:09:32.957Z,20.72
2022-07-30T06:12:03.495Z,20.95
2022-07-30T06:14:29.794Z,20.71
2022-07-30T06:16:56.079Z,20.62
2022-07-30T06:19:22.535Z,21.04
2022-07-30T06:22:05.763Z,20.64
2022-07-30T06:24:33.280Z,20.83
2022-07-30T06:26:59.873Z,21.09
2022-07-30T06:29:26.474Z,20.96
2022-07-30T06:31:52.788Z,20.97
2022-07-30T06:34:19.115Z,21.27
2022-07-30T06:36:45.455Z,21.20
2022-07-30T06:39:11.749Z,21.37
2022-07-30T06:41:38.136Z,21.42
2022-07-30T06:44:04.427Z,21.51
2022-07-30T06:46:30.785Z,21.78
2022-07-30T06:48:57.161Z,21.77
2022-07-30T06:51:23.509Z,21.42
2022-07-30T06:53:49.808Z,21.46
2022-07-30T06:56:16.104Z,21.83
2022-07-30T06:58:42.400Z,21.33
2022-07-30T07:01:11.263Z,21.51
2022-07-30T07:03:40.014Z,21.53
2022-07-30T07:06:06.679Z,21.89
2022-07-30T07:08:32.975Z,21.80
2022-07-30T07:10:59.286Z,21.79
2022-07-30T07:13:25.579Z,21.65
2022-07-30T07:15:51.871Z,21.77
2022-07-30T07:18:18.176Z,21.60
2022-07-30T07:20:46.548Z,21.82
2022-07-30T07:23:12.865Z,21.60
2022-07-30T07:25:40.180Z,21.83
2022-07-30T07:28:11.637Z,21.92
2022-07-30T07:30:39.685Z,21.89
2022-07-30T07:33:06.071Z,21.62
2022-07-30T07:35:32.384Z,21.92
2022-07-30T07:38:14.700Z,21.95
2022-07-30T07:40:40.986Z,21.66
2022-07-30T07:43:07.313Z,21.75
2022-07-30T07:45:34.222Z,21.69
2022-07-30T07:48:00.579Z,21.44
2022-07-30T07:50:26.887Z,21.15
2022-07-30T07:52:53.241Z,21.27
2022-07-30T07:55:22.980Z,21.39
2022-07-30T07:57:50.400Z,21.20
2022-07-30T08:00:17.743Z,21.23
2022-07-30T08:02:44.357Z,21.41
2022-07-30T08:05:12.476Z,21.66
2022-07-30T08:07:38.912Z,21.78
2022-07-30T08:10:05.230Z,21.52
2022-07-30T08:12:31.582Z,21.36
2022-07-30T08:14:57.862Z,21.41
2022-07-30T08:17:24.509Z,21.53
2022-07-30T08:19:50.804Z,21.66
2022-07-30T08:22:17.114Z,21.16
2022-07-30T08:24:43.406Z,21.09
2022-07-30T08:27:09.690Z,21.06
2022-07-30T08:29:35.985Z,20.95
2022-07-30T08:32:02.632Z,21.24
2022-07-30T08:34:29.417Z,21.40
2022-07-30T08:36:55.779Z,21.03
2022-07-30T08:39:22.101Z,21.04
2022-07-30T08:41:48.396Z,21.00
2022-07-30T08:44:14.692Z,21.20
2022-07-30T08:46:41.344Z,21.32
2022-07-30T08:49:14.223Z,20.91
2022-07-30T08:51:40.518Z,21.18
2022-07-30T08:54:06.845Z,20.86
2022-07-30T08:56:33.167Z,20.90
2022-07-30T08:58:59.467Z,20.89
2022-07-30T09:01:25.768Z,21.13
2022-07-30T09:03:52.107Z,21.11
2022-07-30T09:06:18.449Z,21.05
2022-07-30T09:08:44.754Z,21.14
2022-07-30T09:11:11.083Z,21.20
2022-07-30T09:13:41.700Z,21.20
2022-07-30T09:16:08.076Z,21.39
2022-07-30T09:18:34.409Z,21.21
2022-07-30T09:21:00.750Z,21.19
2022-07-30T09:23:27.106Z,21.23
2022-07-30T09:25:54.424Z,21.03
2022-07-30T09:28:20.850Z,21.32
2022-07-30T09:30:47.130Z,20.86
2022-07-30T09:33:13.437Z,20.65
2022-07-30T09:35:39.726Z,20.63
2022-07-30T09:38:06.765Z,20.74
2022-07-30T09:40:33.622Z,21.10
2022-07-30T09:42:59.920Z,21.07
2022-07-30T09:45:26.210Z,21.30
2022-07-30T09:48:01.416Z,21.04
2022-07-30T09:50:30.046Z,21.15
2022-07-30T09:52:57.072Z,20.84
2022-07-30T09:55:23.552Z,20.94
2022-07-30T09:57:51.484Z,20.75
2022-07-30T10:00:23.714Z,20.78
2022-07-30T10:02:51.598Z,20.74
2022-07-30T10:05:19.300Z,20.96
2022-07-30T10:07:46.778Z,20.94
2022-07-30T10:10:14.608Z,21.04
2022-07-30T10:12:43.447Z,21.03
2022-07-30T10:15:13.495Z,21.30
2022-07-30T10:17:40.039Z,20.93
2022-07-30T10:20:08.906Z,20.99
2022-07-30T10:22:35.736Z,21.08
2022-07-30T10:25:02.527Z,20.94
2022-07-30T10:27:32.117Z,20.89
2022-07-30T10:29:58.558Z,20.95
2022-07-30T10:32:31.020Z,21.20
2022-07-30T10:34:57.450Z,21.00
2022-07-30T10:37:24.312Z,21.51
2022-07-30T10:39:52.415Z,21.69
2022-07-30T10:42:19.723Z,21.85
2022-07-30T10:44:46.048Z,21.86
2022-07-30T10:47:13.941Z,21.92
2022-07-30T10:49:40.634Z,22.16
2022-07-30T10:52:08.032Z,22.25
2022-07-30T10:54:39.339Z,22.13
2022-07-30T10:57:06.390Z,22.11
2022-07-30T10:59:32.689Z,22.58
2022-07-30T11:02:03.363Z,23.06
2022-07-30T11:04:29.905Z,22.79
2022-07-30T11:06:56.208Z,23.07
2022-07-30T11:09:22.989Z,23.55
2022-07-30T11:12:01.215Z,23.16
2022-07-30T11:14:32.714Z,23.17
2022-07-30T11:16:59.096Z,23.09
2022-07-30T11:19:56.203Z,23.52
2022-07-30T11:22:12.883Z,23.76
2022-07-30T11:24:39.218Z,23.06
2022-07-30T11:27:05.517Z,23.48
2022-07-30T11:29:35.227Z,23.35
2022-07-30T11:32:17.360Z,23.48
2022-07-30T11:34:43.742Z,23.20
2022-07-30T11:37:18.096Z,23.44
2022-07-30T11:39:48.358Z,22.82
2022-07-30T11:42:15.702Z,22.87
2022-07-30T11:44:42.471Z,23.27
2022-07-30T11:47:08.802Z,23.35
2022-07-30T11:49:35.123Z,23.52
2022-07-30T11:52:01.632Z,23.82
2022-07-30T11:54:28.085Z,23.75
2022-07-30T11:56:54.374Z,23.88
2022-07-30T11:59:20.677Z,23.55
2022-07-30T12:01:46.984Z,23.72
2022-07-30T12:04:13.276Z,23.54
2022-07-30T12:06:39.723Z,23.65
2022-07-30T12:09:06.037Z,23.32
2022-07-30T12:11:32.407Z,23.32
2022-07-30T12:13:59.610Z,23.51
2022-07-30T12:16:25.923Z,23.62
2022-07-30T12:18:52.234Z,23.67
2022-07-30T12:21:18.837Z,23.95
2022-07-30T12:23:45.111Z,24.04
2022-07-30T12:26:11.403Z,24.27
2022-07-30T12:28:37.733Z,24.69
2022-07-30T12:31:04.373Z,24.91
2022-07-30T12:33:30.731Z,25.26
2022-07-30T12:35:57.031Z,24.95
2022-07-30T12:38:23.342Z,24.53
2022-07-30T12:40:49.659Z,24.47
2022-07-30T12:43:16.188Z,24.59
2022-07-30T12:45:52.201Z,24.63
2022-07-30T12:48:20.747Z,24.45
2022-07-30T12:50:48.482Z,24.19
2022-07-30T12:53:14.770Z,24.41
2022-07-30T12:55:41.084Z,24.12
2022-07-30T12:58:08.812Z,24.23
2022-07-30T13:00:36.077Z,24.25
2022-07-30T13:03:02.318Z,24.39
2022-07-30T13:05:28.608Z,24.11
2022-07-30T13:07:54.897Z,24.12
2022-07-30T13:10:21.402Z,24.39
2022-07-30T13:12:47.692Z,23.92
2022-07-30T13:15:14.018Z,23.84
2022-07-30T13:17:40.310Z,23.87
2022-07-30T13:20:06.618Z,24.03
2022-07-30T13:22:32.919Z,24.09
2022-07-30T13:25:00.374Z,24.00
2022-07-30T13:27:26.675Z,23.52
2022-07-30T13:29:52.995Z,23.16
2022-07-30T13:32:19.293Z,23.65
2022-07-30T13:34:49.048Z,24.13
2022-07-30T13:37:15.346Z,24.21
2022-07-30T13:39:41.662Z,24.22
2022-07-30T13:42:07.971Z,23.71
2022-07-30T13:44:34.259Z,24.02
2022-07-30T13:47:02.079Z,24.11
2022-07-30T13:49:28.707Z,24.10
2022-07-30T13:51:56.564Z,24.28
2022-07-30T13:54:22.886Z,24.25
2022-07-30T13:56:49.179Z,24.20
2022-07-30T13:59:16.035Z,24.13
2022-07-30T14:01:42.723Z,24.06
2022-07-30T14:04:09.396Z,24.21
2022-07-30T14:06:35.724Z,24.34
2022-07-30T14:09:02.050Z,24.44
2022-07-30T14:11:28.354Z,24.31
2022-07-30T14:13:54.899Z,24.34
2022-07-30T14:16:43.511Z,24.39
2022-07-30T14:19:07.523Z,24.46
2022-07-30T14:21:34.481Z,24.15
2022-07-30T14:24:00.942Z,24.71
2022-07-30T14:26:30.039Z,24.30
2022-07-30T14:29:02.727Z,24.10
2022-07-30T14:31:29.046Z,24.53
2022-07-30T14:33:55.552Z,24.87
2022-07-30T14:36:22.392Z,25.13
2022-07-30T14:38:48.926Z,25.26
2022-07-30T14:41:15.215Z,25.13
2022-07-30T14:43:41.524Z,25.07
2022-07-30T14:46:07.802Z,24.94
2022-07-30T14:48:34.104Z,25.33
2022-07-30T14:51:16.024Z,25.24
2022-07-30T14:53:47.075Z,25.41
2022-07-30T14:56:13.678Z,25.21
2022-07-30T14:58:40.153Z,25.35
2022-07-30T15:01:15.639Z,24.92
2022-07-30T15:03:42.566Z,25.01
2022-07-30T15:06:09.630Z,25.01
2022-07-30T15:08:36.119Z,24.90
2022-07-30T15:11:04.083Z,24.76
2022-07-30T15:13:32.492Z,24.27
2022-07-30T15:15:58.834Z,24.63
2022-07-30T15:18:25.131Z,24.53
2022-07-30T15:20:51.421Z,24.71
2022-07-30T15:23:17.703Z,24.59
2022-07-30T15:25:43.997Z,24.86
2022-07-30T15:28:10.291Z,24.69
2022-07-30T15:30:36.764Z,25.10
2022-07-30T15:33:03.097Z,25.04
2022-07-30T15:35:29.397Z,25.01
2022-07-30T15:37:55.881Z,25.07
2022-07-30T15:40:22.188Z,25.33
2022-07-30T15:42:48.514Z,25.41
2022-07-30T15:45:17.555Z,25.36
2022-07-30T15:47:44.816Z,25.11
2022-07-30T15:50:11.133Z,25.06
2022-07-30T15:52:37.490Z,24.89
2022-07-30T15:55:04.205Z,24.79
2022-07-30T15:57:30.514Z,25.11
2022-07-30T15:59:56.989Z,25.20
2022-07-30T16:02:23.298Z,24.58
2022-07-30T16:04:49.596Z,24.77
2022-07-30T16:07:19.049Z,24.86
2022-07-30T16:09:45.370Z,24.88
2022-07-30T16:12:11.703Z,24.86
2022-07-30T16:14:37.999Z,24.59
2022-07-30T16:17:04.896Z,24.58
2022-07-30T16:19:31.139Z,23.91
2022-07-30T16:21:57.604Z,23.96
2022-07-30T16:24:23.903Z,23.75
2022-07-30T16:26:50.591Z,24.27
2022-07-30T16:29:17.822Z,24.16
2022-07-30T16:31:44.137Z,24.08
2022-07-30T16:34:10.435Z,24.07
2022-07-30T16:36:36.722Z,23.90
2022-07-30T16:39:03.024Z,23.90
2022-07-30T16:41:29.331Z,23.82
2022-07-30T16:43:55.631Z,23.32
2022-07-30T16:46:21.973Z,23.56
2022-07-30T16:48:50.598Z,23.06
2022-07-30T16:51:17.047Z,23.39
2022-07-30T16:53:43.359Z,23.43
2022-07-30T16:56:09.665Z,23.61
2022-07-30T16:58:35.950Z,23.70
2022-07-30T17:01:02.270Z,23.78
2022-07-30T17:03:28.614Z,23.79
2022-07-30T17:05:54.913Z,23.74
2022-07-30T17:08:24.581Z,23.45
2022-07-30T17:10:51.525Z,23.43
2022-07-30T17:13:17.844Z,23.39
2022-07-30T17:15:44.201Z,23.33
2022-07-30T17:18:13.150Z,23.50
2022-07-30T17:20:39.437Z,23.58
2022-07-30T17:23:05.788Z,23.69
2022-07-30T17:25:32.092Z,23.52
2022-07-30T17:27:58.396Z,23.69
2022-07-30T17:30:24.700Z,23.70
2022-07-30T17:32:50.998Z,22.83
2022-07-30T17:35:17.327Z,22.84
2022-07-30T17:37:43.614Z,23.29
2022-07-30T17:40:29.867Z,23.18
2022-07-30T17:43:02.936Z,23.12
2022-07-30T17:45:29.282Z,22.97
2022-07-30T17:47:55.587Z,23.02
2022-07-30T17:50:21.914Z,22.66
2022-07-30T17:52:48.193Z,22.87
2022-07-30T17:55:14.526Z,23.06
2022-07-30T17:57:40.858Z,23.21
2022-07-30T18:00:07.222Z,23.16
2022-07-30T18:02:33.543Z,23.22
2022-07-30T18:04:59.847Z,23.18
2022-07-30T18:07:26.160Z,23.05
2022-07-30T18:09:52.435Z,22.72
2022-07-30T18:12:18.748Z,22.62
2022-07-30T18:14:45.058Z,22.82
2022-07-30T18:17:14.392Z,22.76
2022-07-30T18:19:41.026Z,22.95
2022-07-30T18:22:07.433Z,22.83
2022-07-30T18:24:33.757Z,22.58
2022-07-30T18:27:06.489Z,22.45
2022-07-30T18:29:32.804Z,22.46
2022-07-30T18:31:59.150Z,22.42
2022-07-30T18:34:25.482Z,22.17
2022-07-30T18:36:53.047Z,22.25
2022-07-30T18:39:19.358Z,22.16
2022-07-30T18:41:45.654Z,22.34
2022-07-30T18:44:11.945Z,22.23
2022-07-30T18:46:38.342Z,22.10
2022-07-30T18:49:26.611Z,21.90
2022-07-30T18:51:50.944Z,21.81
2022-07-30T18:54:18.025Z,21.52
2022-07-30T18:56:44.347Z,21.80
2022-07-30T18:59:10.662Z,21.42
2022-07-30T19:01:39.065Z,21.40
2022-07-30T19:04:05.568Z,21.59
2022-07-30T19:06:31.850Z,21.59
2022-07-30T19:09:00.013Z,21.69
2022-07-30T19:11:26.318Z,21.68
2022-07-30T19:13:52.610Z,21.64
2022-07-30T19:16:20.561Z,21.28
2022-07-30T19:18:46.861Z,21.64
2022-07-30T19:21:14.244Z,21.37
2022-07-30T19:23:40.632Z,21.44
2022-07-30T19:26:06.942Z,21.62
2022-07-30T19:28:34.616Z,21.75
2022-07-30T19:31:00.914Z,21.76
2022-07-30T19:33:27.241Z,21.72
2022-07-30T19:35:53.574Z,21.60
2022-07-30T19:38:22.213Z,21.69
2022-07-30T19:40:50.419Z,21.69
2022-07-30T19:43:16.709Z,21.71
2022-07-30T19:45:47.780Z,21.52
2022-07-30T19:48:14.657Z,21.63
2022-07-30T19:50:41.626Z,21.60
2022-07-30T19:53:08.790Z,21.62
2022-07-30T19:55:37.199Z,21.59
2022-07-30T19:58:03.843Z,21.54
2022-07-30T20:00:30.706Z,21.52
2022-07-30T20:02:57.016Z,21.43
2022-07-30T20:05:24.812Z,21.41
2022-07-30T20:07:51.380Z,21.39
2022-07-30T20:10:19.322Z,21.39
2022-07-30T20:12:49.088Z,21.30
2022-07-30T20:15:16.018Z,21.31
2022-07-30T20:17:42.358Z,21.30
2022-07-30T20:20:09.189Z,21.16
2022-07-30T20:22:35.487Z,21.16
2022-07-30T20:25:02.493Z,20.99
2022-07-30T20:27:35.786Z,20.98
2022-07-30T20:30:03.159Z,21.01
2022-07-30T20:32:29.452Z,21.01
2022-07-30T20:34:56.482Z,20.98
2022-07-30T20:37:23.237Z,20.93
2022-07-30T20:39:49.538Z,20.88
2022-07-30T20:42:16.223Z,20.68
2022-07-30T20:44:43.071Z,20.75
2022-07-30T20:47:09.705Z,20.75
2022-07-30T20:49:36.023Z,20.73
2022-07-30T20:52:02.550Z,20.72
2022-07-30T20:54:29.246Z,20.68
2022-07-30T20:56:56.036Z,20.68
2022-07-30T21:02:08.736Z,20.63
2022-07-30T21:04:41.351Z,20.61
2022-07-30T21:07:12.660Z,20.42
2022-07-30T21:09:49.980Z,20.45
2022-07-30T21:12:19.815Z,20.43
2022-07-30T21:14:59.580Z,20.41
2022-07-30T21:17:26.176Z,20.41
2022-07-30T21:19:54.554Z,20.33
2022-07-30T21:22:21.703Z,20.28
2022-07-30T21:24:48.065Z,20.28
2022-07-30T21:27:14.376Z,20.24
2022-07-30T21:29:41.330Z,20.21
2022-07-30T21:32:07.650Z,20.18
2022-07-30T21:34:40.230Z,20.18
2022-07-30T21:37:08.514Z,20.15
2022-07-30T21:39:40.186Z,20.08
2022-07-30T21:42:06.682Z,20.04
2022-07-30T21:44:32.993Z,19.94
2022-07-30T21:46:59.920Z,19.85
2022-07-30T21:49:27.579Z,19.87
2022-07-30T21:51:57.942Z,19.78
2022-07-30T21:54:28.979Z,19.53
2022-07-30T21:56:56.360Z,19.49
2022-07-30T21:59:24.513Z,19.66
2022-07-30T22:01:55.172Z,19.50
2022-07-30T22:04:21.586Z,19.64
2022-07-30T22:06:47.867Z,19.64
2022-07-30T22:09:19.108Z,19.71
2022-07-30T22:12:00.812Z,19.61
2022-07-30T22:14:27.830Z,19.58
2022-07-30T22:16:55.359Z,19.25
2022-07-30T22:19:21.862Z,19.48
2022-07-30T22:21:48.976Z,19.52
2022-07-30T22:24:29.329Z,19.58
2022-07-30T22:26:57.299Z,19.57
2022-07-30T22:29:27.378Z,19.58
2022-07-30T22:32:01.288Z,19.59
2022-07-30T22:34:27.886Z,19.59
2022-07-30T22:36:54.195Z,19.55
2022-07-30T22:39:23.912Z,19.25
2022-07-30T22:41:58.646Z,19.43
2022-07-30T22:44:27.288Z,19.44
2022-07-30T22:46:56.509Z,19.35
2022-07-30T22:49:23.896Z,19.35
2022-07-30T22:52:10.022Z,19.35
2022-07-30T22:54:51.646Z,19.31
2022-07-30T22:57:23.057Z,19.28
2022-07-30T22:59:57.976Z,19.27
2022-07-30T23:02:27.713Z,19.12
2022-07-30T23:04:56.423Z,19.12
2022-07-30T23:07:22.795Z,18.97
2022-07-30T23:09:52.004Z,18.91
2022-07-30T23:12:20.107Z,18.97
2022-07-30T23:12:33.009Z,20.65
2022-07-30T23:14:46.754Z,19.01
2022-07-30T23:17:13.062Z,19.00
2022-07-30T23:19:39.372Z,19.01
2022-07-30T23:22:06.995Z,18.98
2022-07-30T23:24:33.296Z,18.97
2022-07-30T23:26:59.811Z,18.89
2022-07-30T23:29:26.313Z,18.89
2022-07-30T23:31:52.604Z,18.84
2022-07-30T23:34:18.986Z,18.80
2022-07-30T23:36:45.275Z,18.75
2022-07-30T23:39:11.580Z,18.70
2022-07-30T23:41:38.276Z,18.72
2022-07-30T23:44:04.558Z,18.66
2022-07-30T23:46:30.836Z,18.67
2022-07-30T23:48:57.145Z,18.66
2022-07-30T23:51:23.603Z,18.63
2022-07-30T23:53:49.894Z,18.63
2022-07-30T23:56:17.754Z,18.62
2022-07-30T23:58:45.841Z,18.51
